createdAt,value
2022-12-15T00:02:21.120Z,89.41
2022-12-15T00:05:06.927Z,89.62
2022-12-15T00:07:52.777Z,89.57
2022-12-15T00:10:39.088Z,89.53
2022-12-15T00:13:31.994Z,89.53
2022-12-15T00:16:18.063Z,89.44
2022-12-15T00:19:04.245Z,89.23
2022-12-15T00:21:49.425Z,89.14
2022-12-15T00:24:34.701Z,88.92
2022-12-15T00:27:19.671Z,89.21
2022-12-15T00:30:05.347Z,88.94
2022-12-15T00:32:51.030Z,88.68
2022-12-15T00:35:36.767Z,88.92
2022-12-15T00:38:31.834Z,88.56
2022-12-15T00:41:00.749Z,88.66
2022-12-15T00:43:29.706Z,88.67
2022-12-15T00:46:15.272Z,88.77
2022-12-15T00:48:47.212Z,88.81
2022-12-15T00:51:15.237Z,88.88
2022-12-15T00:54:01.158Z,88.52
2022-12-15T00:56:47.052Z,88.52
2022-12-15T00:59:36.056Z,88.77
2022-12-15T01:02:22.859Z,88.56
2022-12-15T01:05:08.233Z,88.60
2022-12-15T01:07:56.737Z,88.50
2022-12-15T01:10:43.866Z,88.46
2022-12-15T01:13:32.646Z,88.53
2022-12-15T01:16:18.281Z,88.57
2022-12-15T01:19:03.702Z,88.43
2022-12-15T01:21:31.924Z,87.98
2022-12-15T01:23:58.825Z,88.16
2022-12-15T01:26:26.038Z,88.24
2022-12-15T01:28:55.092Z,87.99
2022-12-15T01:31:21.609Z,88.52
2022-12-15T01:33:48.581Z,88.39
2022-12-15T01:36:15.552Z,88.26
2022-12-15T01:38:42.775Z,88.30
2022-12-15T01:41:10.800Z,88.11
2022-12-15T01:43:39.355Z,87.98
2022-12-15T01:46:17.916Z,88.13
2022-12-15T01:48:49.121Z,88.24
2022-12-15T01:51:18.445Z,88.43
2022-12-15T01:54:10.251Z,88.27
2022-12-15T01:56:44.804Z,88.30
2022-12-15T01:59:16.649Z,87.68
2022-12-15T02:01:43.783Z,88.09
2022-12-15T02:04:19.533Z,88.04
2022-12-15T02:06:46.978Z,87.77
2022-12-15T02:09:15.137Z,88.10
2022-12-15T02:11:53.825Z,87.77
2022-12-15T02:14:46.282Z,87.67
2022-12-15T02:17:35.497Z,87.74
2022-12-15T02:20:28.348Z,87.75
2022-12-15T02:23:18.763Z,87.60
2022-12-15T02:26:44.690Z,87.16
2022-12-15T02:29:26.233Z,87.60
2022-12-15T02:32:00.803Z,87.43
2022-12-15T02:34:45.424Z,87.46
2022-12-15T02:37:12.030Z,87.43
2022-12-15T02:39:38.727Z,87.56
2022-12-15T02:42:05.417Z,87.38
2022-12-15T02:44:38.195Z,87.11
2022-12-15T02:47:35.359Z,87.08
2022-12-15T02:50:19.820Z,87.09
2022-12-15T02:53:18.260Z,87.21
2022-12-15T02:55:59.724Z,87.12
2022-12-15T02:58:38.498Z,87.33
2022-12-15T03:01:42.951Z,87.36
2022-12-15T03:04:12.172Z,87.05
2022-12-15T03:06:42.574Z,86.97
2022-12-15T03:09:09.174Z,87.11
2022-12-15T03:11:37.160Z,87.35
2022-12-15T03:14:04.031Z,87.07
2022-12-15T03:16:30.969Z,87.17
2022-12-15T03:18:57.956Z,87.14
2022-12-15T03:21:24.475Z,87.59
2022-12-15T03:23:51.898Z,87.32
2022-12-15T03:26:18.959Z,87.36
2022-12-15T03:28:45.657Z,87.33
2022-12-15T03:31:13.009Z,87.27
2022-12-15T03:33:41.206Z,87.32
2022-12-15T03:36:08.494Z,87.32
2022-12-15T03:38:35.188Z,87.15
2022-12-15T03:41:02.187Z,87.40
2022-12-15T03:43:29.309Z,87.17
2022-12-15T03:45:56.142Z,87.42
2022-12-15T03:48:22.759Z,87.62
2022-12-15T03:50:50.056Z,87.73
2022-12-15T03:53:16.543Z,87.46
2022-12-15T03:55:46.250Z,87.60
2022-12-15T03:58:13.083Z,87.81
2022-12-15T04:00:46.329Z,87.99
2022-12-15T04:03:13.152Z,88.11
2022-12-15T04:05:40.462Z,87.77
2022-12-15T04:08:07.107Z,87.53
2022-12-15T04:10:35.354Z,87.95
2022-12-15T04:13:10.539Z,87.63
2022-12-15T04:15:39.331Z,87.86
2022-12-15T04:18:09.913Z,88.01
2022-12-15T04:20:38.054Z,88.22
2022-12-15T04:23:07.650Z,87.82
2022-12-15T04:25:54.553Z,88.15
2022-12-15T04:28:40.152Z,88.40
2022-12-15T04:31:30.214Z,88.17
2022-12-15T04:34:21.292Z,88.23
2022-12-15T04:37:10.322Z,87.89
2022-12-15T04:40:02.877Z,88.13
2022-12-15T04:42:50.423Z,88.12
2022-12-15T04:45:38.924Z,88.35
2022-12-15T04:48:24.807Z,88.31
2022-12-15T04:51:10.294Z,88.54
2022-12-15T04:53:55.460Z,88.51
2022-12-15T04:56:40.717Z,88.14
2022-12-15T04:59:26.014Z,88.15
2022-12-15T05:02:11.795Z,88.40
2022-12-15T05:04:56.935Z,88.41
2022-12-15T05:07:43.788Z,88.67
2022-12-15T05:10:30.107Z,88.82
2022-12-15T05:13:23.163Z,88.27
2022-12-15T05:16:08.520Z,88.63
2022-12-15T05:18:53.543Z,88.53
2022-12-15T05:21:38.567Z,88.77
2022-12-15T05:24:23.878Z,88.93
2022-12-15T05:27:09.149Z,89.02
2022-12-15T05:29:53.899Z,88.88
2022-12-15T05:32:20.370Z,88.85
2022-12-15T05:34:47.189Z,88.85
2022-12-15T05:37:13.865Z,88.91
2022-12-15T05:39:40.320Z,88.57
2022-12-15T05:42:07.065Z,88.41
2022-12-15T05:44:34.099Z,88.52
2022-12-15T05:47:00.571Z,88.31
2022-12-15T05:49:27.083Z,88.37
2022-12-15T05:51:53.774Z,88.35
2022-12-15T05:54:20.672Z,88.49
2022-12-15T05:56:50.392Z,87.96
2022-12-15T05:59:19.058Z,87.71
2022-12-15T06:01:45.962Z,87.67
2022-12-15T06:04:13.250Z,87.79
2022-12-15T06:06:40.524Z,87.65
2022-12-15T06:09:07.386Z,87.85
2022-12-15T06:11:33.906Z,88.00
2022-12-15T06:14:00.742Z,88.06
2022-12-15T06:16:30.696Z,88.03
2022-12-15T06:19:00.113Z,88.10
2022-12-15T06:21:30.102Z,88.02
2022-12-15T06:23:57.707Z,87.90
2022-12-15T06:26:33.709Z,87.76
2022-12-15T06:29:06.846Z,87.51
2022-12-15T06:31:34.029Z,87.63
2022-12-15T06:34:07.549Z,87.79
2022-12-15T06:36:34.638Z,87.52
2022-12-15T06:39:04.319Z,87.74
2022-12-15T06:41:31.866Z,88.11
2022-12-15T06:43:59.900Z,87.80
2022-12-15T06:46:28.217Z,88.17
2022-12-15T06:48:55.461Z,88.03
2022-12-15T06:51:22.008Z,88.14
2022-12-15T06:53:49.223Z,88.03
2022-12-15T06:56:27.281Z,87.92
2022-12-15T06:58:59.999Z,88.20
2022-12-15T07:01:27.087Z,88.41
2022-12-15T07:03:55.298Z,88.69
2022-12-15T07:06:22.762Z,88.23
2022-12-15T07:08:52.499Z,88.30
2022-12-15T07:11:21.013Z,88.58
2022-12-15T07:13:54.379Z,88.46
2022-12-15T07:16:22.831Z,88.31
2022-12-15T07:18:49.829Z,88.23
2022-12-15T07:21:16.723Z,88.24
2022-12-15T07:23:54.766Z,88.10
2022-12-15T07:26:21.960Z,88.12
2022-12-15T07:28:48.565Z,88.06
2022-12-15T07:31:15.575Z,87.85
2022-12-15T07:33:43.035Z,88.58
2022-12-15T07:36:09.736Z,88.52
2022-12-15T07:38:36.856Z,88.93
2022-12-15T07:41:05.793Z,89.50
2022-12-15T07:43:32.848Z,89.72
2022-12-15T07:46:00.929Z,90.10
2022-12-15T07:48:27.885Z,90.00
2022-12-15T07:51:05.196Z,90.16
2022-12-15T07:53:36.282Z,90.29
2022-12-15T07:56:07.989Z,89.98
2022-12-15T07:58:36.777Z,90.26
2022-12-15T08:01:06.681Z,90.02
2022-12-15T08:03:34.238Z,90.45
2022-12-15T08:06:05.586Z,90.40
2022-12-15T08:08:33.467Z,90.31
2022-12-15T08:11:05.188Z,90.53
2022-12-15T08:14:01.489Z,90.59
2022-12-15T08:16:20.343Z,90.91
2022-12-15T08:18:47.427Z,91.35
2022-12-15T08:21:14.608Z,91.43
2022-12-15T08:23:41.320Z,91.78
2022-12-15T08:26:11.125Z,91.62
2022-12-15T08:28:40.171Z,91.73
2022-12-15T08:31:18.541Z,91.67
2022-12-15T08:33:45.886Z,91.88
2022-12-15T08:36:15.003Z,92.08
2022-12-15T08:38:43.134Z,92.66
2022-12-15T08:41:18.058Z,92.59
2022-12-15T08:43:48.662Z,92.93
2022-12-15T08:46:17.672Z,93.23
2022-12-15T08:48:45.063Z,93.87
2022-12-15T08:51:12.182Z,94.01
2022-12-15T08:53:39.278Z,94.45
2022-12-15T08:56:12.087Z,94.72
2022-12-15T08:58:39.020Z,95.14
2022-12-15T09:01:23.272Z,95.49
2022-12-15T09:03:52.269Z,95.38
2022-12-15T09:06:27.582Z,95.63
2022-12-15T09:08:56.476Z,95.76
2022-12-15T09:11:24.554Z,96.05
2022-12-15T09:13:51.189Z,96.39
2022-12-15T09:16:18.977Z,96.65
2022-12-15T09:18:49.376Z,96.64
2022-12-15T09:21:17.147Z,96.57
2022-12-15T09:23:48.332Z,96.88
2022-12-15T09:26:15.945Z,97.10
2022-12-15T09:28:43.322Z,97.72
2022-12-15T09:31:34.656Z,97.94
2022-12-15T09:34:01.850Z,98.38
2022-12-15T09:36:30.381Z,98.72
2022-12-15T09:38:56.859Z,98.98
2022-12-15T09:41:28.655Z,99.19
2022-12-15T09:44:12.170Z,99.46
2022-12-15T09:47:16.353Z,99.75
2022-12-15T09:50:02.912Z,99.83
2022-12-15T09:52:46.377Z,100.00
2022-12-15T09:55:27.936Z,100.00
2022-12-15T09:58:26.870Z,100.00
2022-12-15T10:00:58.558Z,100.00
2022-12-15T10:03:46.994Z,100.00
2022-12-15T10:06:33.137Z,100.00
2022-12-15T10:09:02.427Z,100.00
2022-12-15T10:12:01.338Z,100.00
2022-12-15T10:14:58.022Z,100.00
2022-12-15T10:17:43.597Z,100.00
2022-12-15T10:20:22.612Z,100.00
2022-12-15T10:22:50.205Z,100.00
2022-12-15T10:25:29.830Z,100.00
2022-12-15T10:28:24.577Z,100.00
2022-12-15T10:31:12.870Z,100.00
2022-12-15T10:33:47.161Z,100.00
2022-12-15T10:36:16.976Z,100.00
2022-12-15T10:38:50.228Z,100.00
2022-12-15T10:41:24.611Z,100.00
2022-12-15T10:43:53.850Z,100.00
2022-12-15T10:46:30.264Z,100.00
2022-12-15T10:48:59.475Z,100.00
2022-12-15T10:51:37.151Z,100.00
2022-12-15T10:54:09.883Z,100.00
2022-12-15T10:56:52.929Z,100.00
2022-12-15T10:59:26.205Z,100.00
2022-12-15T11:01:53.177Z,100.00
2022-12-15T11:04:31.419Z,99.78
2022-12-15T11:07:01.176Z,99.88
2022-12-15T11:09:36.992Z,99.71
2022-12-15T11:12:40.908Z,99.36
2022-12-15T11:15:37.469Z,99.37
2022-12-15T11:18:07.554Z,99.07
2022-12-15T11:20:39.640Z,98.80
2022-12-15T11:23:16.602Z,98.13
2022-12-15T11:25:51.431Z,98.61
2022-12-15T11:28:28.080Z,97.92
2022-12-15T11:31:01.031Z,97.67
2022-12-15T11:33:27.830Z,97.66
2022-12-15T11:36:02.305Z,97.48
2022-12-15T11:38:40.993Z,96.99
2022-12-15T11:41:27.925Z,96.64
2022-12-15T11:44:21.809Z,97.10
2022-12-15T11:46:59.453Z,96.66
2022-12-15T11:50:04.761Z,96.65
2022-12-15T11:52:53.090Z,96.66
2022-12-15T11:55:41.400Z,96.68
2022-12-15T11:58:36.746Z,96.47
2022-12-15T12:01:12.492Z,96.15
2022-12-15T12:03:57.920Z,96.27
2022-12-15T12:06:45.732Z,96.14
2022-12-15T12:09:24.783Z,96.02
2022-12-15T12:12:03.573Z,95.66
2022-12-15T12:15:03.641Z,95.45
2022-12-15T12:17:45.228Z,95.23
2022-12-15T12:20:18.081Z,95.07
2022-12-15T12:23:02.493Z,95.29
2022-12-15T12:25:31.515Z,94.87
2022-12-15T12:28:02.709Z,94.63
2022-12-15T12:30:43.461Z,94.55
2022-12-15T12:33:36.866Z,94.59
2022-12-15T12:36:11.173Z,94.29
2022-12-15T12:38:46.423Z,94.54
2022-12-15T12:41:41.257Z,94.46
2022-12-15T12:44:29.379Z,94.75
2022-12-15T12:46:57.673Z,95.13
2022-12-15T12:49:36.424Z,95.10
2022-12-15T12:52:06.373Z,94.78
2022-12-15T12:54:35.894Z,94.94
2022-12-15T12:57:11.329Z,94.74
2022-12-15T12:59:42.959Z,94.67
2022-12-15T13:02:15.694Z,94.39
2022-12-15T13:05:01.753Z,94.43
2022-12-15T13:07:40.793Z,94.41
2022-12-15T13:10:19.324Z,94.20
2022-12-15T13:12:51.929Z,94.00
2022-12-15T13:15:31.476Z,94.41
2022-12-15T13:18:08.116Z,94.44
2022-12-15T13:20:37.644Z,94.26
2022-12-15T13:23:16.415Z,94.57
2022-12-15T13:26:07.069Z,94.45
2022-12-15T13:28:39.729Z,94.55
2022-12-15T13:31:21.480Z,94.63
2022-12-15T13:33:52.236Z,94.67
2022-12-15T13:36:40.185Z,94.57
2022-12-15T13:39:12.833Z,94.99
2022-12-15T13:42:00.652Z,94.59
2022-12-15T13:44:38.367Z,94.91
2022-12-15T13:47:12.806Z,94.90
2022-12-15T13:50:02.393Z,94.99
2022-12-15T13:56:13.980Z,95.26
2022-12-15T13:58:54.563Z,95.53
2022-12-15T14:01:30.205Z,95.42
2022-12-15T14:04:16.737Z,95.38
2022-12-15T14:06:50.910Z,95.44
2022-12-15T14:09:22.528Z,95.09
2022-12-15T14:11:53.675Z,95.03
2022-12-15T14:14:23.685Z,95.18
2022-12-15T14:16:58.774Z,95.16
2022-12-15T14:19:26.705Z,95.40
2022-12-15T14:21:59.696Z,95.31
2022-12-15T14:24:40.873Z,95.52
2022-12-15T14:27:22.505Z,95.21
2022-12-15T14:29:49.048Z,95.46
2022-12-15T14:32:17.320Z,95.59
2022-12-15T14:34:44.940Z,95.40
2022-12-15T14:37:20.459Z,95.47
2022-12-15T14:39:52.205Z,95.41
2022-12-15T14:42:23.410Z,95.65
2022-12-15T14:44:57.768Z,95.67
2022-12-15T14:47:35.378Z,95.75
2022-12-15T14:50:09.449Z,95.29
2022-12-15T14:52:44.829Z,95.39
2022-12-15T14:55:20.781Z,95.39
2022-12-15T14:57:48.857Z,95.25
2022-12-15T15:00:37.611Z,95.18
2022-12-15T15:05:58.330Z,94.70
2022-12-15T15:09:03.732Z,94.52
2022-12-15T15:11:33.891Z,94.44
2022-12-15T15:14:06.778Z,94.58
2022-12-15T15:16:33.876Z,94.71
2022-12-15T15:19:03.312Z,94.98
2022-12-15T15:21:33.942Z,94.88
2022-12-15T15:24:23.240Z,94.67
2022-12-15T19:14:40.135Z,98.93
2022-12-15T19:17:36.710Z,99.19
2022-12-15T19:20:32.944Z,99.42
2022-12-15T19:22:59.452Z,99.29
2022-12-15T19:25:28.996Z,99.18
2022-12-15T19:27:59.624Z,99.47
2022-12-15T19:30:29.547Z,99.28
2022-12-15T19:32:56.593Z,99.29
2022-12-15T19:35:24.605Z,99.52
2022-12-15T19:37:54.968Z,99.28
2022-12-15T19:40:28.373Z,99.48
2022-12-15T19:42:55.426Z,99.38
2022-12-15T19:45:25.465Z,99.41
2022-12-15T19:47:52.087Z,99.51
2022-12-15T19:50:36.686Z,99.65
2022-12-15T19:53:25.473Z,99.76
2022-12-15T19:55:57.558Z,99.42
2022-12-15T19:58:28.115Z,99.42
2022-12-15T20:00:57.119Z,99.73
2022-12-15T20:03:24.457Z,99.50
2022-12-15T20:05:52.985Z,99.61
2022-12-15T20:08:23.223Z,99.62
2022-12-15T20:10:51.180Z,99.85
2022-12-15T20:13:18.188Z,99.73
2022-12-15T20:15:44.790Z,99.67
2022-12-15T20:18:11.698Z,99.46
2022-12-15T20:20:39.407Z,99.54
2022-12-15T20:23:13.981Z,99.68
2022-12-15T20:25:42.267Z,99.59
2022-12-15T20:28:19.725Z,99.55
2022-12-15T20:30:47.027Z,99.57
2022-12-15T20:33:16.601Z,99.32
2022-12-15T20:35:45.079Z,98.79
2022-12-15T20:38:31.692Z,99.22
2022-12-15T20:41:00.530Z,98.64
2022-12-15T20:43:31.261Z,98.48
2022-12-15T20:46:04.926Z,98.90
2022-12-15T20:48:32.656Z,98.32
2022-12-15T20:51:01.904Z,98.63
2022-12-15T20:53:31.066Z,98.39
2022-12-15T20:55:57.994Z,98.41
2022-12-15T20:58:31.297Z,98.43
2022-12-15T21:00:59.787Z,98.55
2022-12-15T21:03:29.978Z,98.03
2022-12-15T21:05:58.816Z,98.38
2022-12-15T21:08:28.510Z,98.49
2022-12-15T21:10:59.902Z,98.33
2022-12-15T21:13:30.064Z,98.23
2022-12-15T21:15:57.130Z,98.30
2022-12-15T21:21:17.469Z,97.81
2022-12-15T21:23:44.312Z,98.02
2022-12-15T21:26:10.933Z,97.87
2022-12-15T21:28:37.541Z,98.31
2022-12-15T21:31:04.123Z,98.02
2022-12-15T21:33:30.668Z,98.33
2022-12-15T21:35:57.147Z,98.22
2022-12-15T21:38:33.747Z,98.03
2022-12-15T21:41:03.946Z,98.16
2022-12-15T21:43:35.741Z,98.11
2022-12-15T21:46:11.153Z,97.99
2022-12-15T21:48:56.539Z,98.18
2022-12-15T21:51:24.053Z,97.74
2022-12-15T21:53:51.074Z,98.07
2022-12-15T21:56:19.548Z,97.65
2022-12-15T21:58:48.902Z,98.01
2022-12-15T22:01:18.725Z,97.96
2022-12-15T22:03:52.307Z,97.92
2022-12-15T22:06:27.887Z,97.75
2022-12-15T22:08:56.266Z,97.54
2022-12-15T22:11:25.940Z,97.86
2022-12-15T22:13:55.205Z,97.75
2022-12-15T22:16:22.884Z,97.69
2022-12-15T22:18:57.598Z,97.45
2022-12-15T22:21:25.365Z,97.75
2022-12-15T22:23:52.438Z,97.74
2022-12-15T22:26:22.228Z,97.90
2022-12-15T22:28:50.443Z,97.54
2022-12-15T22:31:17.923Z,97.51
2022-12-15T22:33:44.626Z,97.12
2022-12-15T22:36:11.075Z,97.32
2022-12-15T22:38:37.575Z,97.26
2022-12-15T22:41:06.679Z,96.77
2022-12-15T22:43:37.708Z,96.97
2022-12-15T22:46:05.223Z,96.62
2022-12-15T22:48:37.005Z,96.23
2022-12-15T22:51:04.419Z,96.39
2022-12-15T22:53:33.310Z,96.04
2022-12-15T22:56:03.344Z,95.88
2022-12-15T22:58:38.822Z,96.23
2022-12-15T23:01:09.220Z,95.81
2022-12-15T23:03:36.605Z,95.54
2022-12-15T23:06:04.208Z,95.60
2022-12-15T23:08:31.387Z,95.67
2022-12-15T23:11:18.448Z,95.49
2022-12-15T23:13:45.382Z,96.08
2022-12-15T23:16:21.549Z,95.97
2022-12-15T23:18:50.560Z,95.82
2022-12-15T23:21:19.102Z,96.15
2022-12-15T23:23:45.940Z,96.01
2022-12-15T23:26:13.325Z,95.94
2022-12-15T23:28:39.868Z,95.77
2022-12-15T23:31:06.894Z,96.43
2022-12-15T23:33:34.073Z,96.05
2022-12-15T23:36:01.765Z,96.40
2022-12-15T23:38:29.010Z,96.26
2022-12-15T23:40:56.702Z,96.49
2022-12-15T23:43:25.670Z,96.42
2022-12-15T23:46:07.637Z,96.38
2022-12-15T23:48:37.684Z,96.74
2022-12-15T23:51:16.063Z,96.38
2022-12-15T23:53:44.068Z,96.29
2022-12-15T23:56:17.018Z,96.31
2022-12-15T23:58:45.102Z,96.07
